Startpagina
METAR-TAF:

METAR-TAF

Vliegvelden :

Tripoli, Libië

Luchthaven Mitiga Internationaal

breedte: 32-54N, lengte: 13-17E, hoogte: 11 m

METAR: ontbreekt

Tijdstip: 17:18 (15:18 UTC)

Verwachting

Dit bericht is 4 uur en het 18 minuten geleden gemaakt, om 11:00 UTC
Verwachting geldig van 22 om 12 UTC tot 23 om 12 UTC
Wind 15 kt uit het oostzuidoosten met uitschieters tot 25 kt
Zicht: 8000 m
Tijdelijke
van 22 om 12 UTC tot 22 om 18 UTC
Zicht: 4000 m
Stuifzand
Wijzigt naar
van 22 om 22 UTC tot 22 om 24 UTC
Wind 10 kt uit het oosten

TAF: HLLM 221100Z 2212/2312 12015G25KT 8000 NSC TEMPO 2212/2218 4000 BLSA BECMG 2222/2224 09010KT

Waarnemingen en weersverwachtingen van meer dan 4000 vliegvelden (METAR en TAF).

De beschikbare stations zijn de gele en rode punten op de kaart.

Ga met uw muis naar het station om de naam te zien.

Klik dan om waarnemingen en weersverwachtingen te zien.

kaart wijzigen: klik op de groene knoppen met een zwart kruis om in te zoomen, op de groene knop met een streepje om uit te zoomen of op de groene pijlen voor aangrenzende kaarten.


METAR-TAF: